Jump to content
Thunder?
Local
Radar
Pollen
IGNORED

Snow/wintry Precipitation Reports: 23rd December


tugmistress

Recommended Posts

Posted
  • Location: Scrabster Caithness (the far north of Scotland)
  • Location: Scrabster Caithness (the far north of Scotland)

    :D

    yay! :p

    big flakes! :o

    settling :)

    started about an hour ago :)

    I LOVE SNOW :D

    no work tomorrow morning, the ferry has cancelled the 03.45 and 06.00 :D

    i can get up and play with the dogs in the snow :D:D:D

    Link to comment
    Share on other sites

    • Replies 3
    • Created
    • Last Reply
    Posted
  • Location: Exeter, Devon, England
  • Location: Exeter, Devon, England

    Kirkwall now below freezing with light snow and completely calm air!

    EGPA 232050Z 00000KT 7000 -SN FEW006 SCT030 BKN030 M00/M01 Q0988

    Snow showers at Sumburgh, Shetland Isles,

    EGPB 231950Z 28009KT 9999 SHSN FEW008 BKN010 02/M02 Q0987

    Coldest air has made it about as far south as Wick as far as I can see atm...

    Link to comment
    Share on other sites

    Posted
  • Location: Scrabster Caithness (the far north of Scotland)
  • Location: Scrabster Caithness (the far north of Scotland)

    ok, getting heavier, dog was out for about 30 seconds!

    Link to comment
    Share on other sites

    Archived

    This topic is now archived and is closed to further replies.

    Guest
    This topic is now closed to further replies.
    ×
    ×
    • Create New...